Time;durP1;ratioP1;P1;durP2;ratioP2;P2;SDS_P1;SDS_P2;PMS_P1;PMS_P2;Temp;Humidity;BMP_temperature;BMP_pressure;BME280_temperature;BME280_humidity;BME280_pressure;Samples;Min_cycle;Max_cycle;Signal;HPM_P1;HPM_P2
2023/04/23 00:00:40;;;;;;;7.10;4.00;;;16.20;72.30;;;;;;5077206;28;20490;-63
2023/04/23 00:03:16;;;;;;;8.13;4.17;;;16.20;72.30;;;;;;5078268;28;20974;-62
2023/04/23 00:05:55;;;;;;;6.77;3.70;;;16.20;72.40;;;;;;5063479;28;20556;-62
2023/04/23 00:08:26;;;;;;;6.53;3.90;;;16.20;72.40;;;;;;5079588;28;20473;-62
2023/04/23 00:10:57;;;;;;;7.47;3.40;;;16.20;72.50;;;;;;5069259;28;20479;-62
2023/04/23 00:13:48;;;;;;;7.70;3.93;;;16.20;72.50;;;;;;5084268;28;20456;-62
2023/04/23 00:16:26;;;;;;;7.60;3.90;;;16.20;72.60;;;;;;5082353;28;20484;-62
2023/04/23 00:19:04;;;;;;;8.30;4.20;;;16.20;72.70;;;;;;5080708;28;20467;-62
2023/04/23 00:21:38;;;;;;;9.00;4.07;;;16.10;72.70;;;;;;5081271;28;20490;-62
2023/04/23 00:24:17;;;;;;;6.60;4.10;;;16.20;72.70;;;;;;5080681;28;20501;-62
2023/04/23 00:26:58;;;;;;;7.47;3.90;;;16.20;72.80;;;;;;5084297;28;20800;-62
2023/04/23 00:29:32;;;;;;;6.83;3.70;;;16.10;72.80;;;;;;5082009;28;20752;-63
2023/04/23 00:32:22;;;;;;;8.50;4.00;;;16.10;72.90;;;;;;5047897;28;20491;-63
2023/04/23 00:34:56;;;;;;;9.20;4.43;;;16.10;72.90;;;;;;5072024;28;20851;-63
2023/04/23 00:37:33;;;;;;;7.30;3.90;;;16.10;73.00;;;;;;5079803;28;20549;-62
2023/04/23 00:40:07;;;;;;;10.47;4.07;;;16.10;73.00;;;;;;5084060;28;20484;-62
2023/04/23 00:42:37;;;;;;;6.73;3.80;;;16.10;73.00;;;;;;5083757;28;21069;-63
2023/04/23 00:45:28;;;;;;;7.40;4.23;;;16.10;73.00;;;;;;5083189;28;20479;-63
2023/04/23 00:48:01;;;;;;;11.63;4.30;;;16.10;73.10;;;;;;5084655;28;20451;-62
2023/04/23 00:50:43;;;;;;;7.30;4.10;;;16.10;73.10;;;;;;5080496;28;20459;-62
2023/04/23 00:53:21;;;;;;;7.90;3.83;;;16.10;73.10;;;;;;5080382;28;20478;-63
2023/04/23 00:55:54;;;;;;;7.60;4.30;;;16.10;73.20;;;;;;5081224;28;20458;-62
2023/04/23 00:58:31;;;;;;;7.83;4.17;;;16.10;73.30;;;;;;5076848;28;20506;-62
2023/04/23 01:01:11;;;;;;;7.63;3.90;;;16.10;73.30;;;;;;5080440;28;20889;-63
2023/04/23 01:03:45;;;;;;;9.13;4.10;;;16.10;73.40;;;;;;5082096;28;20458;-62
2023/04/23 01:09:20;;;;;;;9.57;3.90;;;16.10;73.50;;;;;;5084233;28;20454;-62
2023/04/23 01:12:01;;;;;;;9.20;4.40;;;16.00;73.50;;;;;;5089823;28;20458;-62
2023/04/23 01:14:30;;;;;;;9.03;3.90;;;16.00;73.60;;;;;;5083931;28;20449;-62
2023/04/23 01:17:07;;;;;;;7.97;4.37;;;16.00;73.60;;;;;;5080719;28;20757;-62
2023/04/23 01:19:47;;;;;;;6.80;3.80;;;16.00;73.80;;;;;;5084862;28;20903;-62
2023/04/23 01:22:26;;;;;;;9.70;4.30;;;15.90;73.80;;;;;;5080569;28;20763;-62
2023/04/23 01:24:57;;;;;;;7.50;4.10;;;15.90;74.00;;;;;;5063934;28;21248;-63
2023/04/23 01:27:38;;;;;;;7.53;3.90;;;15.90;74.00;;;;;;5082069;28;20473;-62
2023/04/23 01:30:09;;;;;;;6.73;3.60;;;15.90;74.10;;;;;;5084419;28;20494;-63
2023/04/23 01:32:45;;;;;;;6.50;4.30;;;15.90;74.20;;;;;;5087373;28;21005;-62
2023/04/23 01:35:22;;;;;;;9.80;4.50;;;15.80;74.30;;;;;;5079268;28;20455;-62
2023/04/23 01:37:57;;;;;;;7.60;4.40;;;15.80;74.40;;;;;;5081070;28;20462;-62
2023/04/23 01:40:31;;;;;;;6.87;3.93;;;15.80;74.50;;;;;;5069061;28;20471;-62
2023/04/23 01:43:07;;;;;;;8.30;4.43;;;15.80;74.50;;;;;;5078138;28;20474;-63
2023/04/23 01:45:39;;;;;;;7.67;4.17;;;15.80;74.60;;;;;;5082743;28;20474;-62
2023/04/23 01:48:25;;;;;;;7.00;4.10;;;15.80;74.80;;;;;;5089084;28;20510;-62
2023/04/23 01:50:56;;;;;;;9.23;4.40;;;15.70;74.90;;;;;;5079657;28;20460;-62
2023/04/23 01:53:36;;;;;;;6.20;3.60;;;15.70;75.00;;;;;;5084451;28;20468;-63
2023/04/23 01:56:18;;;;;;;6.87;3.27;;;15.70;75.20;;;;;;5078109;28;20467;-62
2023/04/23 01:58:51;;;;;;;7.90;4.20;;;15.70;75.30;;;;;;5087942;28;20527;-62
2023/04/23 02:01:25;;;;;;;6.33;3.73;;;15.70;75.40;;;;;;5083634;28;20473;-62
2023/04/23 02:03:57;;;;;;;7.60;3.13;;;15.70;75.40;;;;;;5082590;28;20561;-63
2023/04/23 02:06:36;;;;;;;6.93;3.77;;;15.60;75.60;;;;;;5066341;28;20467;-62
2023/04/23 02:09:24;;;;;;;5.93;3.33;;;15.60;75.70;;;;;;5083858;28;20562;-62
2023/04/23 02:11:58;;;;;;;6.40;3.70;;;15.60;75.90;;;;;;5065364;28;20456;-62
2023/04/23 02:14:37;;;;;;;7.10;3.30;;;15.50;75.90;;;;;;5063957;28;20496;-62
2023/04/23 02:17:17;;;;;;;5.73;3.73;;;15.50;76.00;;;;;;5081006;28;20474;-62
2023/04/23 02:19:54;;;;;;;6.17;3.33;;;15.50;76.10;;;;;;5085618;28;20455;-62
2023/04/23 02:22:30;;;;;;;5.80;3.63;;;15.50;76.20;;;;;;5082160;28;20471;-62
2023/04/23 02:25:06;;;;;;;7.03;4.30;;;15.50;76.20;;;;;;5080057;28;20486;-62
2023/04/23 02:27:39;;;;;;;8.73;3.50;;;15.60;76.30;;;;;;5077681;28;20518;-62
2023/04/23 02:30:14;;;;;;;6.13;3.47;;;15.50;76.40;;;;;;5079305;28;20462;-63
2023/04/23 02:32:54;;;;;;;7.80;4.20;;;15.50;76.50;;;;;;5069482;28;20935;-62
2023/04/23 02:35:29;;;;;;;6.37;3.67;;;15.50;76.50;;;;;;5078394;28;20538;-62
2023/04/23 02:37:58;;;;;;;5.20;3.00;;;15.50;76.60;;;;;;5063386;28;20477;-62
2023/04/23 02:40:39;;;;;;;8.27;3.67;;;15.50;76.60;;;;;;5079479;28;21012;-63
2023/04/23 02:43:18;;;;;;;6.50;3.43;;;15.50;76.80;;;;;;5078305;28;20462;-63
2023/04/23 02:45:48;;;;;;;7.27;3.50;;;15.50;76.80;;;;;;5083587;28;20535;-62
2023/04/23 02:48:20;;;;;;;5.63;3.10;;;15.50;76.80;;;;;;5062363;28;20827;-63
2023/04/23 02:50:55;;;;;;;6.70;3.60;;;15.50;76.90;;;;;;5071015;28;20465;-62
2023/04/23 02:53:29;;;;;;;5.33;3.30;;;15.50;76.90;;;;;;5081226;28;20919;-64
2023/04/23 02:56:15;;;;;;;7.70;3.30;;;15.50;76.90;;;;;;5061352;28;20466;-62
2023/04/23 02:58:45;;;;;;;5.67;3.17;;;15.40;77.00;;;;;;5071919;28;20554;-62
2023/04/23 03:01:14;;;;;;;4.83;2.90;;;15.40;77.00;;;;;;5083213;28;20477;-62
2023/04/23 03:03:46;;;;;;;5.60;2.93;;;15.40;77.10;;;;;;5063105;28;20913;-62
2023/04/23 03:06:33;;;;;;;6.00;3.30;;;15.40;77.10;;;;;;5066856;28;20491;-62
2023/04/23 03:09:12;;;;;;;5.33;3.23;;;15.40;77.10;;;;;;5080757;28;20816;-62
2023/04/23 03:11:51;;;;;;;6.93;3.10;;;15.40;77.10;;;;;;5079513;28;20482;-65
2023/04/23 03:14:24;;;;;;;5.07;3.37;;;15.30;77.20;;;;;;5082526;28;20458;-62
2023/04/23 03:16:58;;;;;;;5.70;3.53;;;15.30;77.30;;;;;;5080317;28;20460;-62
2023/04/23 03:19:37;;;;;;;6.47;3.07;;;15.30;77.30;;;;;;5070030;28;20574;-62
2023/04/23 03:22:09;;;;;;;5.13;3.13;;;15.30;77.40;;;;;;5076684;28;20462;-63
2023/04/23 03:24:43;;;;;;;4.90;3.20;;;15.30;77.50;;;;;;5077637;28;20463;-62
2023/04/23 03:27:19;;;;;;;4.87;3.00;;;15.30;77.50;;;;;;5076951;28;20480;-63
2023/04/23 03:29:51;;;;;;;4.57;2.63;;;15.30;77.50;;;;;;5081918;28;20456;-62
2023/04/23 03:32:26;;;;;;;7.60;3.30;;;15.30;77.60;;;;;;5064740;28;20512;-62
2023/04/23 03:34:55;;;;;;;5.97;3.40;;;15.30;77.70;;;;;;5083111;28;20952;-62
2023/04/23 03:37:30;;;;;;;5.30;3.40;;;15.30;77.60;;;;;;5066246;28;20463;-62
2023/04/23 03:40:06;;;;;;;5.00;2.80;;;15.30;77.70;;;;;;5084051;28;20523;-62
2023/04/23 03:42:50;;;;;;;6.10;2.60;;;15.30;77.80;;;;;;5075901;28;20476;-63
2023/04/23 03:45:33;;;;;;;5.40;3.17;;;15.30;77.90;;;;;;5066611;28;20501;-63
2023/04/23 03:48:06;;;;;;;6.30;3.10;;;15.30;77.90;;;;;;5081228;28;20474;-63
2023/04/23 03:50:42;;;;;;;5.60;3.33;;;15.30;77.90;;;;;;5080052;28;20968;-62
2023/04/23 03:53:28;;;;;;;4.87;2.73;;;15.30;78.00;;;;;;5069402;28;20458;-63
2023/04/23 03:56:21;;;;;;;5.77;3.43;;;15.20;78.00;;;;;;5078931;28;20453;-62
2023/04/23 03:59:12;;;;;;;5.60;2.60;;;15.20;78.00;;;;;;5066782;28;20472;-62
2023/04/23 04:01:47;;;;;;;4.70;2.70;;;15.20;78.00;;;;;;5081201;28;21209;-62
2023/04/23 04:04:25;;;;;;;6.97;3.73;;;15.20;78.00;;;;;;5084520;28;20456;-62
2023/04/23 04:06:59;;;;;;;8.57;3.17;;;15.10;77.90;;;;;;5083922;28;20476;-63
2023/04/23 04:09:42;;;;;;;5.80;3.03;;;15.10;77.90;;;;;;5085155;28;20967;-62
2023/04/23 04:12:22;;;;;;;5.30;3.00;;;15.10;78.00;;;;;;5082678;28;21146;-62
2023/04/23 04:15:09;;;;;;;6.03;3.20;;;15.10;78.10;;;;;;5062122;28;20467;-62
2023/04/23 04:17:51;;;;;;;4.70;2.77;;;15.20;78.00;;;;;;5083840;28;20461;-63
2023/04/23 04:20:29;;;;;;;4.90;2.53;;;15.20;78.00;;;;;;5084067;28;20473;-62
2023/04/23 04:23:00;;;;;;;7.67;3.57;;;15.20;78.10;;;;;;5084906;28;20529;-63
2023/04/23 04:25:38;;;;;;;5.00;2.90;;;15.20;78.10;;;;;;5076066;28;20847;-62
2023/04/23 04:28:08;;;;;;;5.10;2.97;;;15.20;78.10;;;;;;5064543;28;20492;-62
2023/04/23 04:31:01;;;;;;;5.10;3.00;;;15.20;78.10;;;;;;5065138;28;20557;-62
2023/04/23 04:33:42;;;;;;;6.70;3.00;;;15.20;78.20;;;;;;5081060;28;20468;-62
2023/04/23 04:36:13;;;;;;;6.70;3.20;;;15.20;78.20;;;;;;5080226;28;20534;-62
2023/04/23 04:38:44;;;;;;;5.43;2.83;;;15.20;78.30;;;;;;5080952;28;20469;-62
2023/04/23 04:41:24;;;;;;;6.53;3.67;;;15.20;78.30;;;;;;5071890;28;20471;-62
2023/04/23 04:43:57;;;;;;;6.20;3.30;;;15.20;78.30;;;;;;5081986;28;20500;-63
2023/04/23 04:46:44;;;;;;;6.00;3.33;;;15.20;78.40;;;;;;5080711;27;20580;-62
2023/04/23 04:49:18;;;;;;;5.20;3.20;;;15.20;78.40;;;;;;5081969;28;20493;-62
2023/04/23 04:51:54;;;;;;;4.60;2.80;;;15.20;78.40;;;;;;5082968;28;20896;-62
2023/04/23 04:54:26;;;;;;;5.53;3.20;;;15.20;78.50;;;;;;5083936;28;20463;-63
2023/04/23 04:56:57;;;;;;;5.83;3.60;;;15.20;78.50;;;;;;5083194;28;21336;-62
2023/04/23 04:59:33;;;;;;;9.57;3.87;;;15.20;78.60;;;;;;5083092;28;20548;-62
2023/04/23 05:02:26;;;;;;;5.50;3.10;;;15.20;78.60;;;;;;5084677;28;20892;-63
2023/04/23 05:04:59;;;;;;;6.73;3.40;;;15.20;78.60;;;;;;5086889;28;20611;-63
2023/04/23 05:07:37;;;;;;;6.17;3.50;;;15.20;78.60;;;;;;5089296;28;20544;-63
2023/04/23 05:10:18;;;;;;;5.77;3.50;;;15.20;78.60;;;;;;5088610;28;20453;-62
2023/04/23 05:12:52;;;;;;;6.00;3.13;;;15.20;78.60;;;;;;5087899;28;20933;-62
2023/04/23 05:15:23;;;;;;;6.93;3.30;;;15.20;78.60;;;;;;5087310;28;20451;-62
2023/04/23 05:17:54;;;;;;;6.10;3.60;;;15.20;78.70;;;;;;5085405;28;20467;-62
2023/04/23 05:20:31;;;;;;;6.07;3.80;;;15.10;78.70;;;;;;5085867;28;20458;-62
2023/04/23 05:23:06;;;;;;;7.23;3.33;;;15.10;78.70;;;;;;5086144;28;20972;-62
2023/04/23 05:25:46;;;;;;;7.13;4.10;;;15.10;78.70;;;;;;5087941;28;20559;-63
2023/04/23 05:28:25;;;;;;;7.23;4.20;;;15.10;78.70;;;;;;5086174;28;20494;-62
2023/04/23 05:30:58;;;;;;;6.27;4.47;;;15.10;78.70;;;;;;5079003;28;20960;-63
2023/04/23 05:33:39;;;;;;;6.00;3.57;;;15.10;78.70;;;;;;5084111;28;20459;-64
2023/04/23 05:36:21;;;;;;;6.67;4.10;;;15.10;78.70;;;;;;5084343;28;20481;-63
2023/04/23 05:39:04;;;;;;;7.20;4.00;;;15.10;78.70;;;;;;5083301;28;20564;-62
2023/04/23 05:41:43;;;;;;;10.50;4.50;;;15.10;78.70;;;;;;5084581;28;20527;-62
2023/04/23 05:44:20;;;;;;;6.00;4.00;;;15.10;78.70;;;;;;5080037;28;20521;-62
2023/04/23 05:46:59;;;;;;;6.50;4.10;;;15.10;78.70;;;;;;5086678;28;20494;-63
2023/04/23 05:49:32;;;;;;;8.67;4.20;;;15.10;78.70;;;;;;5086227;28;20562;-62
2023/04/23 05:52:05;;;;;;;8.53;3.53;;;15.10;78.60;;;;;;5084354;28;20454;-62
2023/04/23 05:54:44;;;;;;;6.37;3.90;;;15.10;78.60;;;;;;5083088;28;20457;-62
2023/04/23 05:57:25;;;;;;;6.33;3.80;;;15.10;78.60;;;;;;5075640;28;21040;-62
2023/04/23 06:00:01;;;;;;;5.57;3.63;;;15.10;78.60;;;;;;5070235;28;20466;-62
2023/04/23 06:02:43;;;;;;;6.60;3.73;;;15.20;78.60;;;;;;5067980;28;20477;-63
2023/04/23 06:05:26;;;;;;;5.57;3.33;;;15.20;78.60;;;;;;5071049;28;20497;-62
2023/04/23 06:08:00;;;;;;;6.37;3.73;;;15.30;78.50;;;;;;5071430;28;20452;-62
2023/04/23 06:10:33;;;;;;;5.37;3.70;;;15.30;78.40;;;;;;5068994;28;20470;-63
2023/04/23 06:13:07;;;;;;;6.23;3.37;;;15.30;78.20;;;;;;5068073;28;20612;-62
2023/04/23 06:15:44;;;;;;;6.40;3.53;;;15.30;78.10;;;;;;5071453;28;20495;-63
2023/04/23 06:18:20;;;;;;;6.90;3.33;;;15.30;78.10;;;;;;5074766;28;20460;-62
2023/04/23 06:21:06;;;;;;;6.27;3.47;;;15.30;78.10;;;;;;5068266;28;20505;-63
2023/04/23 06:23:38;;;;;;;6.43;3.10;;;15.40;78.00;;;;;;5070114;28;20463;-62
2023/04/23 06:26:11;;;;;;;4.90;2.40;;;15.40;78.00;;;;;;5071051;28;21020;-64
2023/04/23 06:28:52;;;;;;;5.90;3.63;;;15.40;77.90;;;;;;5068499;28;20919;-63
2023/04/23 06:31:35;;;;;;;6.30;3.47;;;15.40;77.90;;;;;;5068051;28;20855;-62
2023/04/23 06:34:07;;;;;;;5.47;3.40;;;15.50;77.90;;;;;;5066755;28;20470;-62
2023/04/23 06:36:42;;;;;;;7.37;3.60;;;15.50;77.90;;;;;;5068365;28;20451;-62
2023/04/23 06:39:15;;;;;;;6.17;2.90;;;15.50;77.80;;;;;;5067298;28;20871;-62
2023/04/23 06:41:48;;;;;;;5.60;3.33;;;15.60;77.70;;;;;;5068916;28;20578;-62
2023/04/23 06:44:50;;;;;;;5.73;3.17;;;15.60;77.70;;;;;;5068849;28;20622;-62
2023/04/23 06:50:10;;;;;;;4.90;3.10;;;15.70;77.40;;;;;;5069234;28;20462;-63
2023/04/23 06:52:45;;;;;;;5.17;3.50;;;15.70;77.20;;;;;;5067071;28;20473;-62
2023/04/23 06:55:20;;;;;;;5.40;3.50;;;15.60;77.20;;;;;;5069498;28;20921;-62
2023/04/23 06:58:01;;;;;;;9.07;3.40;;;15.70;77.20;;;;;;5068567;28;20492;-62
2023/04/23 07:00:32;;;;;;;5.33;3.00;;;15.70;77.10;;;;;;5063065;28;20491;-62
2023/04/23 07:03:07;;;;;;;5.80;3.00;;;15.70;77.20;;;;;;5065529;28;20463;-62
2023/04/23 07:05:45;;;;;;;5.87;2.60;;;15.70;77.00;;;;;;5070016;28;20502;-62
2023/04/23 07:08:26;;;;;;;8.10;3.30;;;15.80;77.00;;;;;;5072419;28;20945;-62
2023/04/23 07:10:58;;;;;;;6.30;2.53;;;15.90;77.10;;;;;;5067191;28;20507;-62
2023/04/23 07:13:33;;;;;;;7.37;2.50;;;15.90;76.90;;;;;;5069811;28;20470;-62
2023/04/23 07:16:14;;;;;;;5.57;3.37;;;16.00;76.80;;;;;;5071497;28;20460;-62
2023/04/23 07:18:46;;;;;;;6.20;3.37;;;16.00;76.60;;;;;;5069023;28;20555;-63
2023/04/23 07:21:18;;;;;;;5.87;3.40;;;16.00;76.60;;;;;;5070439;28;20928;-62
2023/04/23 07:23:58;;;;;;;4.67;2.70;;;16.00;76.50;;;;;;5070350;28;20463;-63
2023/04/23 07:26:33;;;;;;;5.83;2.83;;;16.10;76.30;;;;;;5069405;28;20559;-63
2023/04/23 07:29:05;;;;;;;5.30;2.87;;;16.10;76.30;;;;;;5068175;28;20548;-62
2023/04/23 07:31:37;;;;;;;8.07;3.40;;;16.20;76.20;;;;;;5065481;28;20495;-63
2023/04/23 07:34:19;;;;;;;6.20;3.13;;;16.20;76.10;;;;;;5068364;28;20537;-62
2023/04/23 07:37:00;;;;;;;5.90;3.17;;;16.20;76.00;;;;;;5061937;28;20461;-62
2023/04/23 07:39:46;;;;;;;6.60;3.40;;;16.30;75.80;;;;;;5069921;28;20457;-62
2023/04/23 07:42:20;;;;;;;7.30;3.70;;;16.30;75.70;;;;;;5067635;28;20477;-62
2023/04/23 07:44:49;;;;;;;6.13;3.40;;;16.30;75.60;;;;;;5065782;28;20468;-62
2023/04/23 07:47:22;;;;;;;6.30;3.40;;;16.30;75.50;;;;;;5070750;28;21164;-63
2023/04/23 07:49:54;;;;;;;6.40;3.50;;;16.30;75.50;;;;;;5071207;28;20540;-62
2023/04/23 07:52:26;;;;;;;6.30;3.33;;;16.40;75.50;;;;;;5067612;28;21010;-62
2023/04/23 07:55:03;;;;;;;5.40;3.40;;;16.40;75.50;;;;;;5064516;28;20450;-62
2023/04/23 07:57:37;;;;;;;6.57;4.00;;;16.40;75.40;;;;;;5072558;28;20716;-62
2023/04/23 08:00:12;;;;;;;6.73;3.63;;;16.50;75.40;;;;;;5068137;28;20483;-62
2023/04/23 08:02:43;;;;;;;6.87;3.60;;;16.50;75.30;;;;;;5064441;28;20507;-62
2023/04/23 08:05:14;;;;;;;7.17;4.00;;;16.60;75.30;;;;;;5066897;28;20820;-62
2023/04/23 08:07:47;;;;;;;5.47;3.47;;;16.60;75.10;;;;;;5068697;28;20488;-63
2023/04/23 08:10:27;;;;;;;6.73;3.70;;;16.70;75.00;;;;;;5070829;28;20465;-62
2023/04/23 08:13:07;;;;;;;5.73;3.50;;;16.70;74.90;;;;;;5067197;28;20471;-62
2023/04/23 08:15:42;;;;;;;6.67;3.20;;;16.80;74.80;;;;;;5069294;28;20460;-63
2023/04/23 08:18:24;;;;;;;5.77;3.00;;;16.80;74.60;;;;;;5067693;28;20457;-62
2023/04/23 08:21:04;;;;;;;5.87;3.00;;;16.80;74.50;;;;;;5067832;28;20524;-62
2023/04/23 08:23:41;;;;;;;5.83;3.73;;;16.80;74.40;;;;;;5068463;28;20552;-62
2023/04/23 08:26:16;;;;;;;6.33;3.70;;;16.80;74.30;;;;;;5065456;28;20468;-62
2023/04/23 08:28:53;;;;;;;6.97;4.20;;;16.80;74.20;;;;;;5066546;28;20468;-62
2023/04/23 08:31:27;;;;;;;6.83;4.00;;;16.80;74.00;;;;;;5064730;28;20485;-63
2023/04/23 08:34:00;;;;;;;8.03;4.27;;;16.80;73.90;;;;;;5068738;28;20461;-62
2023/04/23 08:36:40;;;;;;;7.07;4.57;;;16.70;73.80;;;;;;5065701;28;20508;-62
2023/04/23 08:39:13;;;;;;;8.00;4.80;;;16.70;73.70;;;;;;5067632;28;20562;-62
2023/04/23 08:42:05;;;;;;;9.20;5.43;;;16.70;73.60;;;;;;5066176;28;20466;-62
2023/04/23 08:44:41;;;;;;;8.50;5.63;;;16.70;73.60;;;;;;5065023;28;20868;-62
2023/04/23 08:47:20;;;;;;;7.27;4.60;;;16.70;73.50;;;;;;5067567;28;20499;-62
2023/04/23 08:49:55;;;;;;;7.30;4.10;;;16.70;73.30;;;;;;5065214;28;20772;-63
2023/04/23 08:52:33;;;;;;;7.10;4.13;;;16.80;73.30;;;;;;5066352;28;20484;-62
2023/04/23 08:55:09;;;;;;;8.23;3.40;;;16.80;73.20;;;;;;5064120;28;20449;-62
2023/04/23 08:57:50;;;;;;;6.33;3.90;;;16.90;73.00;;;;;;5068624;28;20520;-63
2023/04/23 09:00:22;;;;;;;6.03;3.27;;;16.90;73.10;;;;;;5064978;28;20507;-62
2023/04/23 09:03:04;;;;;;;7.10;3.20;;;16.90;73.10;;;;;;5065095;28;20959;-62
2023/04/23 09:05:45;;;;;;;6.57;3.70;;;16.90;72.80;;;;;;5065571;28;20941;-62
2023/04/23 09:08:23;;;;;;;5.87;3.20;;;17.00;72.70;;;;;;5062975;28;20474;-62
2023/04/23 09:11:02;;;;;;;5.50;3.10;;;17.00;72.80;;;;;;5066741;28;20461;-63
2023/04/23 09:13:47;;;;;;;6.23;3.60;;;17.10;72.60;;;;;;5068351;28;20445;-63
2023/04/23 09:16:17;;;;;;;7.70;3.20;;;17.20;72.60;;;;;;5067305;28;20522;-63
2023/04/23 09:18:56;;;;;;;6.63;3.17;;;17.20;72.50;;;;;;5067236;28;20477;-64
2023/04/23 09:21:28;;;;;;;5.60;3.03;;;17.30;72.30;;;;;;5067523;28;21115;-65
2023/04/23 09:24:00;;;;;;;6.93;3.20;;;17.30;72.20;;;;;;5068187;28;20507;-65
2023/04/23 09:26:34;;;;;;;6.57;3.93;;;17.30;72.00;;;;;;5062952;28;20810;-66
2023/04/23 09:29:12;;;;;;;6.27;3.07;;;17.30;72.00;;;;;;5065998;28;20814;-76
2023/04/23 09:31:44;;;;;;;6.00;2.60;;;17.30;72.00;;;;;;5065823;28;20564;-75
2023/04/23 09:34:18;;;;;;;9.67;2.90;;;17.30;71.80;;;;;;5071606;28;20457;-75
2023/04/23 09:36:52;;;;;;;5.40;2.50;;;17.30;71.70;;;;;;5057941;28;20466;-75
2023/04/23 09:39:23;;;;;;;5.67;3.03;;;17.30;71.70;;;;;;5071666;28;20465;-75
2023/04/23 09:42:02;;;;;;;6.00;3.03;;;17.30;71.70;;;;;;5070662;28;20500;-75
2023/04/23 09:44:39;;;;;;;5.80;3.23;;;17.30;71.60;;;;;;5071390;28;20850;-75
2023/04/23 09:47:14;;;;;;;5.40;3.00;;;17.30;71.40;;;;;;5069814;28;20481;-75
2023/04/23 09:49:47;;;;;;;6.10;2.80;;;17.30;71.40;;;;;;5075740;28;20515;-75
2023/04/23 09:52:17;;;;;;;7.10;3.47;;;17.20;71.30;;;;;;5073080;28;20465;-75
2023/04/23 09:54:46;;;;;;;7.10;3.53;;;17.20;71.30;;;;;;5073059;28;20457;-75
2023/04/23 09:57:17;;;;;;;5.70;3.00;;;17.20;71.30;;;;;;5071116;28;20461;-75
2023/04/23 10:00:17;;;;;;;5.60;3.10;;;17.20;71.30;;;;;;5071861;28;20457;-75
2023/04/23 10:02:53;;;;;;;5.00;2.90;;;17.20;71.20;;;;;;5072877;28;20817;-75
2023/04/23 10:05:22;;;;;;;6.10;3.07;;;17.10;71.30;;;;;;5069390;28;20457;-75
2023/04/23 10:08:14;;;;;;;5.53;2.97;;;17.10;71.30;;;;;;5070991;28;20934;-75
2023/04/23 10:10:49;;;;;;;8.57;3.40;;;17.20;71.30;;;;;;5081861;28;20957;-75
2023/04/23 10:13:46;;;;;;;5.97;3.40;;;17.20;71.20;;;;;;5069710;28;20957;-75
2023/04/23 10:16:32;;;;;;;5.70;2.97;;;17.20;71.20;;;;;;5073026;28;20784;-75
2023/04/23 10:19:26;;;;;;;5.80;3.00;;;17.20;71.00;;;;;;5069955;28;20527;-75
2023/04/23 10:21:59;;;;;;;4.87;2.50;;;17.20;71.10;;;;;;5070952;28;20610;-75
2023/04/23 10:24:54;;;;;;;7.53;3.40;;;17.20;71.10;;;;;;5071822;28;20945;-74
2023/04/23 10:27:32;;;;;;;5.20;3.20;;;17.30;71.00;;;;;;5072433;28;20466;-75
2023/04/23 10:30:24;;;;;;;5.27;2.93;;;17.40;70.90;;;;;;5070631;28;20568;-75
2023/04/23 10:33:02;;;;;;;5.30;2.40;;;17.40;70.70;;;;;;5073236;28;20480;-75
2023/04/23 10:35:43;;;;;;;6.23;2.97;;;17.50;70.60;;;;;;5073188;28;20911;-75
2023/04/23 10:38:18;;;;;;;5.80;3.37;;;17.50;70.70;;;;;;5073193;28;20547;-75
2023/04/23 10:40:56;;;;;;;5.53;2.70;;;17.50;70.40;;;;;;5068640;28;20547;-75
2023/04/23 10:43:30;;;;;;;7.10;3.20;;;17.60;70.10;;;;;;5070764;28;20462;-75
2023/04/23 10:46:04;;;;;;;5.37;3.20;;;17.50;69.90;;;;;;5071425;28;20469;-75
2023/04/23 10:49:05;;;;;;;5.80;2.50;;;17.60;69.90;;;;;;5071286;28;20492;-75
2023/04/23 10:51:38;;;;;;;6.23;3.00;;;17.70;69.40;;;;;;5069408;28;20539;-75
2023/04/23 10:54:14;;;;;;;4.57;2.57;;;17.70;69.50;;;;;;5053736;28;20524;-75
2023/04/23 10:56:46;;;;;;;4.40;2.30;;;17.70;69.50;;;;;;5071115;28;20515;-75
2023/04/23 10:59:24;;;;;;;6.33;3.03;;;17.70;69.30;;;;;;5081700;28;20454;-75
2023/04/23 11:01:56;;;;;;;4.50;2.50;;;17.70;69.10;;;;;;5070097;28;20566;-75
2023/04/23 11:04:45;;;;;;;5.30;2.70;;;17.70;68.90;;;;;;5070488;28;20485;-75
2023/04/23 11:07:34;;;;;;;5.57;2.53;;;17.80;68.50;;;;;;5069605;28;20457;-75
2023/04/23 11:10:18;;;;;;;5.77;2.60;;;17.80;68.60;;;;;;5069051;28;20458;-75
2023/04/23 11:12:56;;;;;;;4.97;2.80;;;17.90;68.30;;;;;;5067915;28;20479;-75
2023/04/23 11:15:30;;;;;;;6.50;2.20;;;17.90;68.10;;;;;;5069899;28;20453;-75
2023/04/23 11:18:06;;;;;;;6.70;2.30;;;18.00;68.00;;;;;;5069038;28;20862;-75
2023/04/23 11:20:58;;;;;;;4.60;2.20;;;18.10;67.40;;;;;;5065650;28;20835;-75
2023/04/23 11:23:31;;;;;;;4.90;2.10;;;18.10;67.30;;;;;;5068385;28;20459;-75
2023/04/23 11:26:04;;;;;;;4.40;2.00;;;18.20;67.20;;;;;;5071255;28;20465;-77
2023/04/23 11:28:37;;;;;;;4.70;2.20;;;18.30;66.70;;;;;;5069394;28;20487;-75
2023/04/23 11:31:09;;;;;;;4.70;2.10;;;18.40;66.70;;;;;;5069115;28;20485;-75
2023/04/23 11:33:38;;;;;;;6.40;2.20;;;18.40;66.50;;;;;;5067382;28;20502;-75
2023/04/23 11:36:18;;;;;;;8.80;2.67;;;18.50;66.40;;;;;;5070071;28;20451;-75
2023/04/23 11:38:53;;;;;;;4.47;1.90;;;18.50;66.10;;;;;;5069049;28;20468;-75
2023/04/23 11:41:28;;;;;;;4.27;1.93;;;18.50;66.10;;;;;;5068049;28;20454;-75
2023/04/23 11:43:59;;;;;;;3.90;2.10;;;18.50;66.10;;;;;;5068964;28;20452;-75
2023/04/23 11:46:31;;;;;;;4.60;2.00;;;18.50;66.10;;;;;;5068407;28;20571;-75
2023/04/23 11:49:12;;;;;;;4.13;1.60;;;18.50;65.70;;;;;;5068903;28;20471;-75
2023/04/23 11:51:53;;;;;;;4.20;1.77;;;18.60;65.50;;;;;;5081793;28;20546;-75
2023/04/23 11:54:32;;;;;;;5.10;2.30;;;18.60;65.00;;;;;;5071147;28;20503;-76
2023/04/23 11:57:07;;;;;;;3.90;1.90;;;18.60;64.60;;;;;;5083118;28;20810;-76
2023/04/23 11:59:42;;;;;;;6.47;2.03;;;18.60;64.50;;;;;;5082513;28;20448;-76
2023/04/23 12:02:15;;;;;;;4.17;2.07;;;18.60;64.60;;;;;;5067785;28;20817;-75
2023/04/23 12:04:46;;;;;;;5.40;2.00;;;18.60;64.50;;;;;;5070193;28;20481;-75
2023/04/23 12:07:39;;;;;;;5.80;2.20;;;18.60;64.10;;;;;;5069634;28;20470;-76
2023/04/23 12:10:20;;;;;;;5.67;1.93;;;18.60;64.20;;;;;;5067843;28;20488;-75
2023/04/23 12:12:55;;;;;;;6.47;2.13;;;18.60;64.30;;;;;;5070627;28;20834;-75
2023/04/23 12:15:24;;;;;;;6.30;2.03;;;18.70;64.20;;;;;;5067658;28;20475;-76
2023/04/23 12:18:14;;;;;;;4.20;1.80;;;18.70;64.40;;;;;;5069248;28;20458;-76
2023/04/23 12:20:48;;;;;;;4.97;1.87;;;18.70;64.30;;;;;;5066288;28;20463;-75
2023/04/23 12:23:28;;;;;;;3.70;1.47;;;18.70;64.20;;;;;;5067680;28;20513;-76
2023/04/23 12:26:02;;;;;;;4.30;1.57;;;18.70;63.70;;;;;;5073595;28;20499;-75
2023/04/23 12:28:40;;;;;;;3.70;1.30;;;18.70;63.50;;;;;;5064978;28;20500;-76
2023/04/23 12:31:10;;;;;;;5.00;1.90;;;18.80;63.30;;;;;;5064888;28;20478;-76
2023/04/23 12:33:48;;;;;;;4.77;1.50;;;18.80;62.90;;;;;;5065344;28;20794;-75
2023/04/23 12:36:20;;;;;;;4.63;1.83;;;18.80;62.60;;;;;;5069544;28;21068;-76
2023/04/23 12:39:14;;;;;;;4.57;1.77;;;18.90;62.90;;;;;;5082807;28;20462;-76
2023/04/23 12:41:42;;;;;;;3.47;1.40;;;19.00;62.60;;;;;;5065282;28;20465;-76
2023/04/23 12:44:13;;;;;;;4.53;1.43;;;19.00;62.60;;;;;;5068749;28;20462;-76
2023/04/23 12:46:45;;;;;;;4.60;1.83;;;19.10;62.60;;;;;;5064827;28;20477;-76
2023/04/23 12:49:17;;;;;;;4.77;1.40;;;19.10;62.60;;;;;;5068384;28;20513;-76
2023/04/23 12:51:51;;;;;;;7.43;1.90;;;19.10;62.40;;;;;;5063931;28;20472;-76
2023/04/23 12:54:31;;;;;;;4.90;1.90;;;19.10;62.00;;;;;;5066843;28;20468;-75
2023/04/23 12:57:12;;;;;;;7.03;2.60;;;19.20;62.10;;;;;;5071818;28;20555;-76
2023/04/23 12:59:46;;;;;;;4.10;1.60;;;19.20;61.90;;;;;;5066122;28;20469;-76
2023/04/23 13:02:19;;;;;;;4.67;1.67;;;19.20;62.00;;;;;;5080568;28;20476;-76
2023/04/23 13:04:50;;;;;;;4.10;1.90;;;19.20;61.90;;;;;;5068194;28;20895;-76
2023/04/23 13:07:22;;;;;;;4.00;1.37;;;19.20;61.90;;;;;;5086822;28;20465;-76
2023/04/23 13:09:53;;;;;;;3.70;1.20;;;19.20;61.90;;;;;;5071125;28;20974;-76
2023/04/23 13:12:27;;;;;;;5.30;1.80;;;19.20;61.90;;;;;;5068060;28;20497;-75
2023/04/23 13:15:07;;;;;;;3.53;1.10;;;19.30;61.70;;;;;;5071937;28;20680;-76
2023/04/23 13:17:41;;;;;;;3.97;1.20;;;19.30;61.70;;;;;;5063204;28;20456;-75
2023/04/23 13:20:14;;;;;;;3.70;1.30;;;19.40;61.50;;;;;;5075166;28;20463;-77
2023/04/23 13:22:54;;;;;;;3.50;1.30;;;19.40;61.50;;;;;;5071071;28;20506;-75
2023/04/23 13:25:27;;;;;;;3.87;1.53;;;19.50;61.20;;;;;;5070936;28;20457;-75
2023/04/23 13:27:56;;;;;;;3.70;1.20;;;19.50;61.20;;;;;;5071765;28;20527;-75
2023/04/23 13:30:34;;;;;;;4.50;1.30;;;19.50;61.30;;;;;;5070443;28;20491;-75
2023/04/23 13:33:13;;;;;;;5.50;1.60;;;19.50;60.80;;;;;;5071494;28;20506;-75
2023/04/23 13:35:46;;;;;;;4.73;1.63;;;19.50;60.70;;;;;;5070936;28;20471;-75
2023/04/23 13:38:19;;;;;;;3.27;1.13;;;19.60;60.80;;;;;;5074550;28;20914;-75
2023/04/23 13:40:51;;;;;;;3.67;1.20;;;19.60;60.50;;;;;;5072837;28;20455;-75